Time;durP1;ratioP1;P1;durP2;ratioP2;P2;SDS_P1;SDS_P2;PMS_P1;PMS_P2;Temp;Humidity;BMP_temperature;BMP_pressure;BME280_temperature;BME280_humidity;BME280_pressure;Samples;Min_cycle;Max_cycle;Signal;HPM_P1;HPM_P2
2023/12/22 00:01:58;;;;;;;0.73;0.30;;;9.20;73.10;7.60;94872.00;;;;4974455;28;20574;-84
2023/12/22 00:04:26;;;;;;;0.20;0.20;;;9.20;73.20;7.50;94860.00;;;;4986418;28;20269;-84
2023/12/22 00:06:54;;;;;;;1.20;0.30;;;9.10;73.20;7.40;94884.00;;;;4975906;28;20242;-85
2023/12/22 00:09:21;;;;;;;1.33;0.23;;;9.00;72.90;7.30;94895.00;;;;4981400;28;20290;-85
2023/12/22 00:11:49;;;;;;;0.80;0.30;;;9.00;72.90;7.20;94891.00;;;;4981019;28;20258;-85
2023/12/22 00:14:16;;;;;;;0.30;0.20;;;8.90;73.20;7.10;94878.00;;;;4964427;28;20203;-85
2023/12/22 00:16:45;;;;;;;1.03;0.37;;;8.80;73.60;7.00;94865.00;;;;4974696;28;20277;-85
2023/12/22 00:19:12;;;;;;;0.83;0.20;;;8.70;74.10;7.00;94861.00;;;;4978361;28;20234;-85
2023/12/22 00:21:39;;;;;;;0.13;0.10;;;8.70;74.30;6.90;94864.00;;;;4973166;28;20200;-84
2023/12/22 00:24:07;;;;;;;0.37;0.20;;;8.60;74.20;6.80;94866.00;;;;4983336;28;20561;-85
2023/12/22 00:26:34;;;;;;;0.43;0.20;;;8.50;74.50;6.80;94864.00;;;;4978436;28;20247;-85
2023/12/22 00:29:01;;;;;;;0.17;0.10;;;8.50;74.60;6.70;94870.00;;;;4981779;28;20254;-85
2023/12/22 00:31:28;;;;;;;0.73;0.30;;;8.30;74.60;6.70;94867.00;;;;4980161;28;20262;-85
2023/12/22 00:33:56;;;;;;;1.07;0.27;;;8.40;75.00;6.70;94851.00;;;;4981840;28;20311;-85
2023/12/22 00:36:24;;;;;;;0.80;0.27;;;8.30;75.10;6.60;94863.00;;;;4985504;28;20239;-85
2023/12/22 00:38:51;;;;;;;0.40;0.20;;;8.30;75.40;6.60;94865.00;;;;4972809;28;20206;-85
2023/12/22 00:41:18;;;;;;;1.17;0.40;;;8.20;75.60;6.60;94859.00;;;;4978482;28;20531;-85
2023/12/22 00:43:46;;;;;;;0.33;0.20;;;8.20;75.90;6.60;94866.00;;;;4980236;28;20290;-85
2023/12/22 00:46:14;;;;;;;0.97;0.50;;;8.20;76.10;6.60;94864.00;;;;4978117;28;20285;-85
2023/12/22 00:48:41;;;;;;;0.50;0.23;;;8.20;76.30;6.60;94862.00;;;;4972543;28;20674;-85
2023/12/22 00:51:10;;;;;;;1.20;0.40;;;8.20;76.40;6.70;94871.00;;;;4971485;28;20203;-84
2023/12/22 00:53:37;;;;;;;0.47;0.20;;;8.20;76.90;6.70;94859.00;;;;4984654;28;20237;-85
2023/12/22 00:56:06;;;;;;;0.70;0.27;;;8.20;77.00;6.70;94859.00;;;;4978726;28;20262;-85
2023/12/22 00:58:33;;;;;;;2.30;0.50;;;8.20;77.00;6.70;94860.00;;;;4973681;28;20211;-85
2023/12/22 01:01:00;;;;;;;1.50;0.30;;;8.20;77.10;6.80;94856.00;;;;4979767;28;20290;-85
2023/12/22 01:03:27;;;;;;;1.00;0.30;;;8.30;77.30;6.80;94869.00;;;;4975935;28;20655;-85
2023/12/22 01:05:54;;;;;;;0.30;0.30;;;8.30;77.40;6.80;94877.00;;;;4980747;28;20308;-85
2023/12/22 01:08:23;;;;;;;1.20;0.53;;;8.30;77.60;6.90;94881.00;;;;4979619;28;20656;-85
2023/12/22 01:10:50;;;;;;;1.33;0.30;;;8.30;77.60;6.90;94878.00;;;;4973707;28;20204;-85
2023/12/22 01:13:20;;;;;;;1.37;0.80;;;8.40;77.60;7.00;94879.00;;;;4966114;28;20237;-85
2023/12/22 01:15:47;;;;;;;1.63;0.30;;;8.40;77.70;7.00;94871.00;;;;4978035;28;20226;-85
2023/12/22 01:18:14;;;;;;;0.30;0.30;;;8.40;77.70;7.00;94874.00;;;;4982950;28;20226;-85
2023/12/22 01:20:41;;;;;;;1.63;1.03;;;8.40;77.70;7.00;94884.00;;;;4976632;28;20203;-85
2023/12/22 01:23:08;;;;;;;1.37;0.30;;;8.50;77.80;7.10;94902.00;;;;4986474;28;20262;-85
2023/12/22 01:25:39;;;;;;;0.60;0.23;;;8.60;78.10;7.10;94890.00;;;;4980330;28;20277;-85
2023/12/22 01:28:07;;;;;;;0.50;0.30;;;8.50;78.00;7.20;94902.00;;;;4985314;28;20916;-85
2023/12/22 01:30:34;;;;;;;1.20;0.30;;;8.60;78.10;7.20;94902.00;;;;4973505;28;20199;-85
2023/12/22 01:33:01;;;;;;;0.93;0.40;;;8.60;78.10;7.20;94893.00;;;;4972054;28;20729;-85
2023/12/22 01:35:28;;;;;;;1.40;0.33;;;8.70;78.10;7.30;94892.00;;;;4972940;28;20250;-85
2023/12/22 01:37:56;;;;;;;0.40;0.30;;;8.70;78.20;7.30;94890.00;;;;4971753;28;20274;-85
2023/12/22 01:40:24;;;;;;;0.53;0.23;;;8.70;78.20;7.30;94890.00;;;;4987005;28;20290;-84
2023/12/22 01:42:52;;;;;;;0.50;0.30;;;8.70;78.40;7.40;94896.00;;;;4978553;28;20625;-84
2023/12/22 01:45:19;;;;;;;0.93;0.30;;;8.80;78.40;7.40;94895.00;;;;4978771;28;20635;-84
2023/12/22 01:47:48;;;;;;;0.50;0.30;;;8.80;78.40;7.40;94901.00;;;;4978042;28;20289;-84
2023/12/22 01:50:17;;;;;;;1.80;0.50;;;8.80;78.30;7.40;94906.00;;;;4984285;28;20230;-84
2023/12/22 01:52:45;;;;;;;0.93;0.30;;;8.80;78.40;7.50;94906.00;;;;4971098;28;20265;-84
2023/12/22 01:55:16;;;;;;;0.70;0.40;;;8.90;78.30;7.50;94899.00;;;;4975495;28;20258;-84
2023/12/22 01:57:47;;;;;;;1.57;0.40;;;8.90;78.20;7.50;94896.00;;;;4969622;28;20236;-84
2023/12/22 02:00:17;;;;;;;1.23;0.20;;;8.90;78.00;7.50;94910.00;;;;4979947;28;20664;-84
2023/12/22 02:02:46;;;;;;;2.10;0.30;;;8.90;77.90;7.50;94915.00;;;;4978521;28;20241;-84
2023/12/22 02:05:13;;;;;;;1.07;0.23;;;8.90;77.90;7.40;94924.00;;;;4972359;28;20270;-84
2023/12/22 02:07:43;;;;;;;0.50;0.30;;;8.90;77.80;7.40;94922.00;;;;4982984;28;20371;-85
2023/12/22 02:10:11;;;;;;;0.47;0.20;;;8.90;77.70;7.40;94924.00;;;;4973299;28;20219;-84
2023/12/22 02:12:38;;;;;;;0.80;0.20;;;8.90;77.80;7.40;94918.00;;;;4983706;28;20281;-84
2023/12/22 02:15:07;;;;;;;0.90;0.30;;;8.90;77.90;7.30;94905.00;;;;4984546;28;20261;-84
2023/12/22 02:17:45;;;;;;;0.50;0.30;;;8.90;77.90;7.30;94898.00;;;;4987447;28;20237;-84
2023/12/22 02:20:14;;;;;;;0.83;0.30;;;8.90;77.90;7.30;94914.00;;;;4980545;28;20195;-84
2023/12/22 02:22:42;;;;;;;0.90;0.20;;;8.80;78.00;7.30;94897.00;;;;4975502;28;20234;-84
2023/12/22 02:25:09;;;;;;;0.20;0.10;;;8.80;78.10;7.30;94898.00;;;;4985300;28;20247;-84
2023/12/22 02:27:46;;;;;;;0.90;0.53;;;8.80;78.20;7.30;94915.00;;;;4985034;28;20681;-84
2023/12/22 02:30:23;;;;;;;0.20;0.10;;;8.80;78.30;7.30;94915.00;;;;4983714;28;20329;-84
2023/12/22 02:32:56;;;;;;;1.60;0.20;;;8.80;78.20;7.30;94932.00;;;;4970665;28;20305;-84
2023/12/22 02:35:27;;;;;;;1.10;0.20;;;8.80;78.20;7.30;94925.00;;;;4968924;28;20229;-84
2023/12/22 02:37:59;;;;;;;0.30;0.10;;;8.80;78.20;7.30;94918.00;;;;4968519;28;20265;-84
2023/12/22 02:40:27;;;;;;;0.40;0.10;;;8.70;78.20;7.20;94932.00;;;;4981841;28;20655;-84
2023/12/22 02:42:55;;;;;;;0.30;0.10;;;8.70;78.20;7.20;94905.00;;;;4987083;28;20648;-84
2023/12/22 02:45:22;;;;;;;0.27;0.20;;;8.70;78.30;7.20;94926.00;;;;4980477;28;20310;-84
2023/12/22 02:47:49;;;;;;;1.10;0.30;;;8.70;78.30;7.20;94907.00;;;;4982071;28;20237;-84
2023/12/22 02:50:18;;;;;;;0.40;0.17;;;8.60;78.20;7.20;94916.00;;;;4980963;28;20571;-84
2023/12/22 02:52:45;;;;;;;0.70;0.20;;;8.70;78.20;7.20;94911.00;;;;4992393;28;20781;-84
2023/12/22 02:55:13;;;;;;;0.30;0.20;;;8.70;78.30;7.20;94899.00;;;;4992117;28;20230;-84
2023/12/22 02:57:41;;;;;;;0.27;0.10;;;8.70;78.50;7.20;94894.00;;;;4984822;28;20206;-84
2023/12/22 03:00:10;;;;;;;0.40;0.20;;;8.70;78.70;7.20;94891.00;;;;4982014;28;20215;-84
2023/12/22 03:02:37;;;;;;;0.37;0.10;;;8.70;78.80;7.20;94881.00;;;;4972993;28;20222;-84
2023/12/22 03:05:05;;;;;;;0.30;0.13;;;8.70;79.00;7.20;94877.00;;;;4971457;28;20279;-84
2023/12/22 03:07:32;;;;;;;0.60;0.20;;;8.70;79.10;7.30;94881.00;;;;4974485;28;20227;-84
2023/12/22 03:09:59;;;;;;;0.30;0.30;;;8.70;79.00;7.30;94868.00;;;;4969418;28;20231;-84
2023/12/22 03:12:28;;;;;;;1.27;0.20;;;8.70;79.00;7.30;94879.00;;;;4979011;28;20302;-84
2023/12/22 03:14:55;;;;;;;0.10;0.10;;;8.70;79.10;7.40;94883.00;;;;4982992;28;20647;-84
2023/12/22 03:17:22;;;;;;;0.10;0.10;;;8.70;79.00;7.40;94868.00;;;;4992248;28;20281;-84
2023/12/22 03:19:49;;;;;;;0.57;0.20;;;8.80;79.10;7.40;94879.00;;;;4974438;28;20227;-84
2023/12/22 03:22:18;;;;;;;0.83;0.20;;;8.80;79.10;7.40;94865.00;;;;4981832;28;20207;-84
2023/12/22 03:24:45;;;;;;;0.40;0.30;;;8.80;78.90;7.40;94874.00;;;;4973336;28;20281;-84
2023/12/22 03:27:16;;;;;;;0.20;0.20;;;8.80;78.80;7.40;94867.00;;;;4977166;28;20218;-84
2023/12/22 03:29:44;;;;;;;0.67;0.23;;;8.80;78.80;7.40;94867.00;;;;4984651;28;20254;-84
2023/12/22 03:32:11;;;;;;;0.40;0.20;;;8.80;78.60;7.40;94867.00;;;;4981080;28;20258;-84
2023/12/22 03:34:38;;;;;;;0.20;0.20;;;8.80;78.60;7.40;94871.00;;;;4975228;28;20238;-84
2023/12/22 03:37:06;;;;;;;0.50;0.20;;;8.80;78.60;7.40;94876.00;;;;4987608;28;20294;-84
2023/12/22 03:39:33;;;;;;;0.30;0.17;;;8.80;78.50;7.40;94873.00;;;;4986868;28;20199;-84
2023/12/22 03:42:00;;;;;;;0.20;0.20;;;8.70;78.60;7.40;94863.00;;;;4979987;28;20668;-84
2023/12/22 03:44:28;;;;;;;0.63;0.20;;;8.80;78.70;7.40;94870.00;;;;4978736;28;20202;-85
2023/12/22 03:46:57;;;;;;;0.23;0.20;;;8.80;78.60;7.40;94873.00;;;;4980799;28;20624;-84
2023/12/22 03:49:24;;;;;;;0.37;0.33;;;8.80;78.60;7.40;94865.00;;;;4986543;28;20644;-84
2023/12/22 03:51:51;;;;;;;0.73;0.10;;;8.80;78.50;7.40;94882.00;;;;4988938;28;20234;-84
2023/12/22 03:54:18;;;;;;;0.47;0.10;;;8.80;78.60;7.40;94881.00;;;;4972068;28;20251;-85
2023/12/22 03:56:46;;;;;;;0.20;0.20;;;8.80;78.60;7.30;94873.00;;;;4970793;28;20231;-84
2023/12/22 03:59:13;;;;;;;0.43;0.20;;;8.80;78.50;7.30;94856.00;;;;4971731;28;20226;-84
2023/12/22 04:01:40;;;;;;;0.77;0.20;;;8.80;78.60;7.30;94852.00;;;;4971214;28;20243;-84
2023/12/22 04:04:09;;;;;;;0.40;0.10;;;8.80;78.60;7.20;94843.00;;;;4981479;28;20261;-84
2023/12/22 04:06:40;;;;;;;0.23;0.17;;;8.70;78.50;7.20;94865.00;;;;4985236;28;20278;-84
2023/12/22 04:09:07;;;;;;;0.50;0.10;;;8.70;78.70;7.10;94820.00;;;;4990538;28;20627;-84
2023/12/22 04:11:34;;;;;;;3.10;0.53;;;8.70;78.70;7.10;94827.00;;;;4978518;28;20243;-84
2023/12/22 04:14:01;;;;;;;1.10;0.10;;;8.70;79.50;7.10;94818.00;;;;4968949;28;20215;-84
2023/12/22 04:16:29;;;;;;;0.67;0.17;;;8.70;79.00;7.10;94832.00;;;;4977618;28;20227;-84
2023/12/22 04:18:56;;;;;;;0.10;0.10;;;8.60;79.00;7.10;94831.00;;;;4979758;28;20265;-84
2023/12/22 04:21:24;;;;;;;0.10;0.10;;;8.60;79.10;7.10;94839.00;;;;4983423;28;20253;-84
2023/12/22 04:23:51;;;;;;;0.30;0.10;;;8.60;79.20;7.10;94844.00;;;;4972112;28;20203;-84
2023/12/22 04:26:19;;;;;;;0.10;0.10;;;8.60;79.30;7.20;94832.00;;;;4974771;28;20265;-84
2023/12/22 04:28:46;;;;;;;0.73;0.10;;;8.60;79.50;7.20;94829.00;;;;4985951;28;20202;-84
2023/12/22 04:31:13;;;;;;;0.33;0.20;;;8.70;79.60;7.20;94826.00;;;;4969349;28;20230;-84
2023/12/22 04:33:40;;;;;;;0.80;0.20;;;8.70;79.60;7.20;94823.00;;;;4969979;28;20251;-84
2023/12/22 04:36:08;;;;;;;0.67;0.10;;;8.70;79.70;7.30;94825.00;;;;4981431;28;20243;-84
2023/12/22 04:38:36;;;;;;;0.20;0.10;;;8.70;79.70;7.30;94830.00;;;;4985580;28;20695;-84
2023/12/22 04:41:03;;;;;;;0.87;0.13;;;8.70;79.80;7.30;94829.00;;;;4971208;28;20287;-84
2023/12/22 04:43:31;;;;;;;0.03;0.03;;;8.70;79.60;7.30;94818.00;;;;4969433;28;20243;-84
2023/12/22 04:45:58;;;;;;;0.20;0.20;;;8.70;79.60;7.40;94806.00;;;;4973352;28;20269;-84
2023/12/22 04:48:25;;;;;;;0.20;0.10;;;8.80;79.60;7.40;94838.00;;;;4990150;28;20266;-84
2023/12/22 04:50:52;;;;;;;0.60;0.23;;;8.70;79.50;7.40;94822.00;;;;4987885;28;20257;-84
2023/12/22 04:53:19;;;;;;;1.17;0.23;;;8.90;79.50;7.40;94819.00;;;;4975376;28;20218;-84
2023/12/22 04:55:48;;;;;;;1.63;0.30;;;8.70;79.30;7.50;94827.00;;;;4974874;28;20266;-84
2023/12/22 04:58:15;;;;;;;0.43;0.40;;;8.80;79.30;7.50;94838.00;;;;4982109;28;20325;-84
2023/12/22 05:00:42;;;;;;;1.50;0.30;;;8.80;79.40;7.50;94867.00;;;;4978133;28;20199;-84
2023/12/22 05:03:09;;;;;;;0.97;0.20;;;8.90;79.40;7.50;94899.00;;;;4988475;28;20241;-84
2023/12/22 05:05:37;;;;;;;1.00;0.30;;;8.90;79.50;7.50;94912.00;;;;4989713;28;20226;-84
2023/12/22 05:08:05;;;;;;;0.77;0.20;;;8.90;79.60;7.50;94916.00;;;;4987788;28;20200;-84
2023/12/22 05:10:32;;;;;;;0.40;0.20;;;8.90;79.30;7.40;94918.00;;;;4987771;28;20806;-84
2023/12/22 05:13:01;;;;;;;0.30;0.10;;;8.90;78.50;7.30;94925.00;;;;4971573;28;20252;-84
2023/12/22 05:15:28;;;;;;;0.30;0.00;;;8.90;78.30;7.30;94933.00;;;;4983348;28;20269;-84
2023/12/22 05:17:55;;;;;;;1.87;0.20;;;8.80;78.40;7.20;94951.00;;;;4986389;28;20234;-84
2023/12/22 05:20:22;;;;;;;0.10;0.10;;;8.80;78.60;7.20;94945.00;;;;4980430;28;20223;-83
2023/12/22 05:22:49;;;;;;;0.13;0.10;;;8.80;78.80;7.20;94962.00;;;;4982523;28;20198;-84
2023/12/22 05:25:17;;;;;;;0.17;0.10;;;8.70;78.80;7.10;94938.00;;;;4969901;28;20219;-83
2023/12/22 05:27:44;;;;;;;0.57;0.10;;;8.70;78.80;7.10;94950.00;;;;4976562;28;20203;-84
2023/12/22 05:30:14;;;;;;;0.20;0.10;;;8.70;78.80;7.00;94965.00;;;;4987459;28;20674;-83
2023/12/22 05:32:41;;;;;;;0.30;0.10;;;8.60;78.60;7.00;94940.00;;;;4982212;28;20237;-84
2023/12/22 05:35:10;;;;;;;0.10;0.10;;;8.60;78.60;6.90;94947.00;;;;4988191;28;20310;-84
2023/12/22 05:37:37;;;;;;;0.10;0.10;;;8.50;78.80;6.90;94940.00;;;;4981129;28;20203;-84
2023/12/22 05:40:06;;;;;;;0.00;0.00;;;8.50;78.80;6.90;94946.00;;;;4979173;28;20666;-84
2023/12/22 05:42:33;;;;;;;0.00;0.00;;;8.50;78.80;6.90;94938.00;;;;4977754;28;20206;-84
2023/12/22 05:45:00;;;;;;;0.10;0.10;;;8.40;78.90;6.80;94938.00;;;;4973257;28;20627;-84
2023/12/22 05:47:29;;;;;;;0.00;0.00;;;8.40;79.10;6.80;94941.00;;;;4970012;28;20234;-84
2023/12/22 05:49:56;;;;;;;0.10;0.10;;;8.40;79.20;6.80;94939.00;;;;4972358;28;20231;-84
2023/12/22 05:52:23;;;;;;;0.37;0.10;;;8.40;79.10;6.80;94935.00;;;;4984932;28;20611;-84
2023/12/22 05:54:50;;;;;;;0.00;0.00;;;8.30;79.20;6.80;94941.00;;;;4979413;28;20222;-84
2023/12/22 05:57:17;;;;;;;0.30;0.07;;;8.30;79.40;6.70;94942.00;;;;4978196;28;20202;-84
2023/12/22 05:59:44;;;;;;;0.37;0.10;;;8.30;79.50;6.70;94934.00;;;;4988274;28;20334;-84
2023/12/22 06:02:13;;;;;;;0.10;0.10;;;8.30;79.50;6.70;94928.00;;;;4988350;28;20230;-84
2023/12/22 06:04:42;;;;;;;0.10;0.10;;;8.30;79.60;6.70;94915.00;;;;4988832;28;20670;-84
2023/12/22 06:07:09;;;;;;;0.10;0.10;;;8.20;79.60;6.70;94919.00;;;;4980045;28;20854;-83
2023/12/22 06:09:36;;;;;;;0.20;0.10;;;8.30;79.70;6.70;94941.00;;;;4989038;28;20720;-84
2023/12/22 06:12:04;;;;;;;0.23;0.20;;;8.30;79.80;6.70;94954.00;;;;4968581;28;20263;-84
2023/12/22 06:14:32;;;;;;;0.33;0.10;;;8.20;79.90;6.70;94956.00;;;;4971238;28;20847;-84
2023/12/22 06:16:59;;;;;;;2.10;0.20;;;8.20;80.00;6.70;94953.00;;;;4975839;28;20409;-83
2023/12/22 06:19:28;;;;;;;0.27;0.27;;;8.30;80.30;6.80;94962.00;;;;4978985;28;20714;-83
2023/12/22 06:21:57;;;;;;;0.30;0.23;;;8.30;80.50;6.80;94962.00;;;;4977888;28;20750;-82
2023/12/22 06:24:24;;;;;;;0.50;0.30;;;8.30;80.70;6.90;94973.00;;;;4983866;28;20202;-82
2023/12/22 06:26:54;;;;;;;0.30;0.30;;;8.30;80.80;6.90;94968.00;;;;4987814;28;20226;-82
2023/12/22 06:29:21;;;;;;;0.93;0.40;;;8.40;81.00;7.00;94970.00;;;;4978218;28;20199;-82
2023/12/22 06:31:50;;;;;;;0.67;0.30;;;8.40;81.10;7.10;94953.00;;;;4970963;28;20224;-82
2023/12/22 06:34:17;;;;;;;0.23;0.23;;;8.50;81.20;7.20;94966.00;;;;4968592;28;20222;-82
2023/12/22 06:36:47;;;;;;;1.47;0.30;;;8.60;82.00;7.20;94971.00;;;;4978261;28;20284;-83
2023/12/22 06:39:16;;;;;;;0.60;0.37;;;8.60;81.20;7.30;94982.00;;;;4981579;28;20195;-82
2023/12/22 06:41:43;;;;;;;0.40;0.30;;;8.70;81.20;7.30;94981.00;;;;4985855;28;20689;-82
2023/12/22 06:44:10;;;;;;;0.73;0.50;;;8.70;81.10;7.40;94988.00;;;;4968728;28;20684;-83
2023/12/22 06:46:37;;;;;;;0.50;0.47;;;8.80;81.10;7.40;94993.00;;;;4980961;28;20227;-83
2023/12/22 06:49:05;;;;;;;0.73;0.40;;;8.80;81.00;7.40;95003.00;;;;4971411;28;20253;-83
2023/12/22 06:51:34;;;;;;;1.13;0.60;;;8.90;81.10;7.50;95002.00;;;;4981462;28;20202;-81
2023/12/22 06:54:03;;;;;;;0.87;0.30;;;8.90;80.80;7.50;95007.00;;;;4975860;28;20763;-82
2023/12/22 06:56:36;;;;;;;0.53;0.40;;;8.90;80.60;7.50;95012.00;;;;4977576;28;20313;-83
2023/12/22 06:59:03;;;;;;;0.20;0.20;;;8.90;80.10;7.40;95019.00;;;;4978699;28;20184;-82
2023/12/22 07:01:32;;;;;;;0.30;0.20;;;8.90;79.50;7.30;94990.00;;;;4978928;28;20286;-82
2023/12/22 07:04:01;;;;;;;1.13;0.20;;;8.90;78.90;7.20;95007.00;;;;4967668;28;20216;-82
2023/12/22 07:06:30;;;;;;;0.27;0.10;;;8.80;78.70;7.10;95006.00;;;;4967480;28;20712;-83
2023/12/22 07:09:29;;;;;;;0.10;0.10;;;8.70;78.40;7.00;95033.00;;;;4976446;28;20196;-83
2023/12/22 07:11:58;;;;;;;0.20;0.20;;;8.70;78.60;6.80;95042.00;;;;4974150;28;20208;-84
2023/12/22 07:14:25;;;;;;;0.67;0.00;;;8.60;78.50;6.80;95045.00;;;;4973890;28;20230;-83
2023/12/22 07:16:52;;;;;;;0.10;0.10;;;8.50;78.40;6.70;95032.00;;;;4974605;28;20203;-83
2023/12/22 07:19:19;;;;;;;0.10;0.10;;;8.40;78.20;6.60;95014.00;;;;4974033;28;20616;-83
2023/12/22 07:21:47;;;;;;;0.30;0.20;;;8.40;78.30;6.50;95013.00;;;;4973674;28;20231;-83
2023/12/22 07:24:14;;;;;;;0.40;0.20;;;8.30;78.30;6.50;95003.00;;;;4973463;28;20278;-84
2023/12/22 07:26:41;;;;;;;0.10;0.10;;;8.20;78.60;6.50;95019.00;;;;4975665;28;20250;-84
2023/12/22 07:29:09;;;;;;;0.27;0.10;;;8.20;79.00;6.40;95019.00;;;;4975700;28;20211;-83
2023/12/22 07:31:37;;;;;;;0.00;0.00;;;8.10;79.30;6.40;95036.00;;;;4976386;28;20238;-82
2023/12/22 07:34:04;;;;;;;0.13;0.10;;;8.10;79.70;6.40;95045.00;;;;4976725;28;20309;-82
2023/12/22 07:36:31;;;;;;;0.10;0.10;;;8.10;80.00;6.40;95043.00;;;;4975989;28;20266;-83
2023/12/22 07:38:59;;;;;;;0.10;0.10;;;8.10;80.10;6.40;95069.00;;;;4972075;28;20211;-82
2023/12/22 07:41:26;;;;;;;0.20;0.13;;;8.00;80.20;6.50;95059.00;;;;4976649;28;20208;-81
2023/12/22 07:43:53;;;;;;;0.40;0.30;;;8.00;80.40;6.40;95067.00;;;;4980187;28;20296;-81
2023/12/22 07:46:23;;;;;;;1.30;0.20;;;8.00;80.60;6.50;95079.00;;;;4978080;28;20230;-84
2023/12/22 07:48:50;;;;;;;0.50;0.20;;;8.00;80.70;6.50;95087.00;;;;4975848;28;20211;-83
2023/12/22 07:51:17;;;;;;;1.13;0.30;;;8.10;80.90;6.50;95091.00;;;;4967709;28;20202;-82
2023/12/22 07:53:45;;;;;;;0.20;0.20;;;8.10;81.10;6.50;95088.00;;;;4984914;28;20250;-82
2023/12/22 07:56:12;;;;;;;0.43;0.20;;;8.10;81.30;6.60;95119.00;;;;4979073;28;20240;-83
2023/12/22 07:58:40;;;;;;;0.47;0.20;;;8.10;81.40;6.60;95112.00;;;;4980770;28;20227;-83
2023/12/22 08:01:07;;;;;;;0.73;0.40;;;8.10;81.60;6.70;95113.00;;;;4982279;28;20203;-84
2023/12/22 08:03:35;;;;;;;1.53;0.37;;;8.20;81.70;6.70;95099.00;;;;4975748;28;20707;-83
2023/12/22 08:06:03;;;;;;;0.20;0.20;;;8.20;81.90;6.70;95095.00;;;;4974757;28;20228;-83
2023/12/22 08:08:30;;;;;;;0.47;0.20;;;8.20;81.90;6.80;95082.00;;;;4981976;28;20218;-83
2023/12/22 08:10:57;;;;;;;0.50;0.27;;;8.30;81.90;6.80;95093.00;;;;4975455;28;20659;-83
2023/12/22 08:13:24;;;;;;;0.50;0.30;;;8.30;81.60;6.80;95098.00;;;;4981608;28;20233;-83
2023/12/22 08:15:53;;;;;;;0.60;0.30;;;8.30;81.40;6.70;95087.00;;;;4974234;28;20249;-83
2023/12/22 08:18:20;;;;;;;0.50;0.40;;;8.30;81.30;6.70;95102.00;;;;4983959;28;20923;-83
2023/12/22 08:20:49;;;;;;;0.63;0.30;;;8.30;81.20;6.70;95101.00;;;;4989134;28;20229;-84
2023/12/22 08:23:16;;;;;;;1.43;0.43;;;8.30;81.40;6.70;95093.00;;;;4971854;28;20230;-85
2023/12/22 08:25:43;;;;;;;0.60;0.50;;;8.30;81.50;6.80;95107.00;;;;4978723;28;20285;-84
2023/12/22 08:28:12;;;;;;;1.90;0.80;;;8.30;81.80;6.80;95115.00;;;;4973618;28;20239;-84
2023/12/22 08:30:39;;;;;;;0.80;0.77;;;8.30;82.10;6.90;95121.00;;;;4968329;28;20218;-85
2023/12/22 08:33:06;;;;;;;1.43;0.50;;;8.30;82.40;7.00;95117.00;;;;4968592;28;20282;-84
2023/12/22 08:35:34;;;;;;;0.77;0.40;;;8.40;82.60;7.00;95113.00;;;;4978286;28;20315;-85
2023/12/22 08:38:03;;;;;;;1.50;0.53;;;8.40;82.80;7.10;95130.00;;;;4974398;28;20203;-84
2023/12/22 08:40:30;;;;;;;0.87;0.50;;;8.50;83.10;7.20;95130.00;;;;4973230;28;20246;-84
2023/12/22 08:42:59;;;;;;;3.03;0.70;;;8.60;83.20;7.20;95141.00;;;;4973309;28;20280;-84
2023/12/22 08:45:28;;;;;;;1.20;0.50;;;8.60;83.30;7.30;95145.00;;;;4972700;28;20220;-83
2023/12/22 08:47:56;;;;;;;1.40;0.43;;;8.70;83.50;7.40;95149.00;;;;4973440;28;20196;-83
2023/12/22 08:50:23;;;;;;;1.37;0.60;;;8.80;83.50;7.40;95147.00;;;;4980544;28;20195;-84
2023/12/22 08:52:50;;;;;;;0.80;0.40;;;8.80;83.60;7.50;95164.00;;;;4973159;28;20293;-86
2023/12/22 08:55:19;;;;;;;1.37;0.40;;;8.80;83.60;7.60;95166.00;;;;4978915;28;20313;-84
2023/12/22 08:57:46;;;;;;;1.27;0.60;;;8.90;83.80;7.70;95153.00;;;;4983655;28;20703;-84
2023/12/22 09:00:14;;;;;;;1.77;0.50;;;9.00;84.00;7.70;95154.00;;;;4976225;28;20233;-84
2023/12/22 09:02:45;;;;;;;0.70;0.47;;;9.00;83.80;7.80;95164.00;;;;4978736;28;20283;-83
2023/12/22 09:05:12;;;;;;;1.20;0.47;;;9.10;83.80;7.80;95157.00;;;;4974387;28;20221;-83
2023/12/22 09:07:40;;;;;;;1.13;0.60;;;9.20;83.90;7.90;95156.00;;;;4975357;28;20231;-83
2023/12/22 09:10:08;;;;;;;1.13;0.40;;;9.20;83.80;7.90;95144.00;;;;4967298;28;20199;-83
2023/12/22 09:12:36;;;;;;;1.03;0.50;;;9.30;83.70;8.00;95144.00;;;;4968033;28;20236;-83
2023/12/22 09:15:04;;;;;;;1.27;0.47;;;9.40;83.80;8.10;95151.00;;;;4974579;28;20251;-83
2023/12/22 09:17:32;;;;;;;2.60;1.10;;;9.40;83.80;8.10;95135.00;;;;4979888;28;20207;-83
2023/12/22 09:19:59;;;;;;;0.77;0.67;;;9.40;83.80;8.20;95136.00;;;;4975129;28;20593;-83
2023/12/22 09:22:26;;;;;;;1.90;0.60;;;9.50;83.90;8.20;95131.00;;;;4974514;28;20211;-83
2023/12/22 09:24:53;;;;;;;2.67;0.80;;;9.60;83.80;8.30;95131.00;;;;4976599;28;20215;-83
2023/12/22 09:27:21;;;;;;;1.50;0.70;;;9.60;83.80;8.40;95142.00;;;;4980323;28;20783;-83
2023/12/22 09:29:49;;;;;;;2.43;0.80;;;9.70;84.50;8.50;95142.00;;;;4975338;28;20227;-82
2023/12/22 09:32:16;;;;;;;2.03;0.80;;;9.70;83.80;8.50;95121.00;;;;4970804;28;20207;-83
2023/12/22 09:34:44;;;;;;;3.43;1.13;;;9.80;84.00;8.60;95125.00;;;;4975161;28;20329;-83
2023/12/22 09:37:11;;;;;;;4.33;1.37;;;9.90;84.20;8.70;95139.00;;;;4980398;28;20287;-82
2023/12/22 09:39:38;;;;;;;3.00;1.07;;;9.90;84.10;8.80;95145.00;;;;4974460;28;20195;-82
2023/12/22 09:42:06;;;;;;;3.13;1.00;;;10.00;84.00;8.80;95143.00;;;;4980084;28;20295;-82
2023/12/22 09:44:34;;;;;;;3.30;0.70;;;10.10;83.90;8.90;95157.00;;;;4976921;28;20618;-83
2023/12/22 09:47:06;;;;;;;3.00;1.47;;;10.10;83.70;8.90;95168.00;;;;4975057;28;21002;-83
2023/12/22 09:49:35;;;;;;;1.63;0.83;;;10.20;83.60;8.90;95166.00;;;;4975010;28;20570;-83
2023/12/22 09:52:05;;;;;;;1.03;0.63;;;10.20;83.30;8.90;95174.00;;;;4974244;28;20230;-83
2023/12/22 09:54:33;;;;;;;1.00;0.50;;;10.30;83.10;8.90;95157.00;;;;4982150;28;20258;-83
2023/12/22 09:57:01;;;;;;;1.57;0.60;;;10.30;82.90;8.90;95144.00;;;;4979330;28;20238;-83
2023/12/22 09:59:33;;;;;;;3.07;0.80;;;10.30;82.50;8.90;95136.00;;;;4985593;28;20258;-83
2023/12/22 10:02:04;;;;;;;1.13;0.90;;;10.20;82.60;8.90;95125.00;;;;4977411;28;20207;-83
2023/12/22 10:04:32;;;;;;;3.30;1.23;;;10.30;83.10;8.90;95120.00;;;;4990793;28;20206;-82
2023/12/22 10:07:04;;;;;;;1.90;0.70;;;10.30;83.30;9.00;95130.00;;;;4985136;28;20262;-82
2023/12/22 10:09:35;;;;;;;5.40;1.27;;;10.30;83.30;9.10;95114.00;;;;4973388;28;20242;-83
2023/12/22 10:12:05;;;;;;;1.87;1.10;;;10.40;83.70;9.10;95112.00;;;;4977172;28;20211;-83
2023/12/22 10:14:35;;;;;;;5.13;1.57;;;10.40;83.70;9.20;95102.00;;;;4977611;28;20242;-83
2023/12/22 10:17:04;;;;;;;4.37;1.53;;;10.50;83.70;9.30;95115.00;;;;4977948;28;20573;-83
2023/12/22 10:19:32;;;;;;;1.73;1.20;;;10.50;83.60;9.40;95109.00;;;;4977361;28;20211;-83
2023/12/22 10:21:59;;;;;;;2.47;1.50;;;10.60;83.60;9.40;95114.00;;;;4981129;28;20286;-84
2023/12/22 10:24:42;;;;;;;1.63;1.10;;;10.60;83.50;9.40;95112.00;;;;4976437;28;20203;-84
2023/12/22 10:27:10;;;;;;;2.30;1.00;;;10.70;83.20;9.50;95130.00;;;;4976744;28;20200;-82
2023/12/22 10:29:39;;;;;;;3.70;1.50;;;10.70;83.30;9.50;95118.00;;;;4983829;28;20250;-83
2023/12/22 10:32:09;;;;;;;2.93;1.57;;;10.70;83.10;9.50;95134.00;;;;4967971;28;20204;-83
2023/12/22 10:34:37;;;;;;;1.57;0.90;;;10.70;82.90;9.50;95135.00;;;;4975602;28;20589;-83
2023/12/22 10:37:09;;;;;;;1.50;0.70;;;10.70;82.80;9.40;95105.00;;;;4976714;28;20226;-83
2023/12/22 10:39:38;;;;;;;2.23;0.77;;;10.70;82.50;9.40;95110.00;;;;4977738;28;20207;-82
2023/12/22 10:42:06;;;;;;;1.20;0.50;;;10.70;82.40;9.40;95117.00;;;;4972601;28;20254;-82
2023/12/22 10:44:33;;;;;;;2.67;1.00;;;10.70;82.40;9.30;95105.00;;;;4978106;28;20211;-82
2023/12/22 10:47:02;;;;;;;0.93;0.70;;;10.70;82.30;9.30;95105.00;;;;4981690;28;20297;-83
2023/12/22 10:49:33;;;;;;;1.77;0.40;;;10.70;82.30;9.30;95121.00;;;;4975574;28;20580;-85
2023/12/22 10:52:01;;;;;;;0.20;0.20;;;10.60;82.20;9.20;95119.00;;;;4972981;28;20211;-83
2023/12/22 10:54:28;;;;;;;0.70;0.30;;;10.60;82.20;9.20;95113.00;;;;4975611;28;20231;-82
2023/12/22 10:56:59;;;;;;;1.93;0.40;;;10.60;82.00;9.10;95128.00;;;;4975831;28;20237;-82
2023/12/22 10:59:31;;;;;;;0.67;0.50;;;10.50;81.80;9.10;95144.00;;;;4980841;28;20202;-83
2023/12/22 11:01:59;;;;;;;1.93;0.70;;;10.50;81.80;9.10;95137.00;;;;4982859;28;20210;-83
2023/12/22 11:04:38;;;;;;;1.17;0.50;;;10.50;81.80;9.00;95139.00;;;;4975664;28;20204;-84
2023/12/22 11:07:07;;;;;;;0.87;0.30;;;10.50;81.70;9.00;95131.00;;;;4985253;28;20229;-85
2023/12/22 11:09:37;;;;;;;0.97;0.60;;;10.50;81.90;9.00;95126.00;;;;4974739;28;20211;-84
2023/12/22 11:12:07;;;;;;;0.60;0.30;;;10.50;82.00;9.00;95134.00;;;;4975375;28;20268;-84
2023/12/22 11:14:36;;;;;;;0.40;0.40;;;10.40;81.90;8.90;95131.00;;;;4975435;28;20207;-85